Details for United Airlines at KORD




Go Back


Latest METAR
Local Time

KORD 240651Z 00000KT 10SM CLR 16/11 A3016 RMK AO2 SLP210 T01560111

24/05/2018, 02:45:11

Description
Results
United Airlines Logo
Number of Pilots based at KORD
0 Pilots Based here
Number of United Airlines Flights Departed from KORD
5 Flights Departed
Number of United Airlines Flights Arrived at KORD
6 Flights Arrived
Number of United Airlines Schedules Departing from KORD
623 Schedules
Number of United Airlines Schedules Arriving at KORD
634 Schedules
Number of United Airlines Schedules Departing from KORD availible today
407 Schedules Today
Number of United Airlines Schedules Arriving at KORD availible today
409 Schedules Today
Average Landing Rate at KORD
-226 fpm
United Airlines Average Landing Rate at KORD
-287 fpm
Total Fuel Purchased at KORD by United Airlines
23,901.58 kgs / 52,693.42 lbs

Pilots Based at KORD


Pilot ID
Pilot Name
Pilot Rank
No. of Flights
No. of Flying Hours
There are no pilots assigned to this hub!   Will you be the first?
Content